Time;durP1;ratioP1;P1;durP2;ratioP2;P2;SDS_P1;SDS_P2;PMS_P1;PMS_P2;Temp;Humidity;BMP_temperature;BMP_pressure;BME280_temperature;BME280_humidity;BME280_pressure;Samples;Min_cycle;Max_cycle;Signal;HPM_P1;HPM_P2
2022/12/19 00:02:04;;;;;;;0.90;0.90;;;-3.20;99.90;;;;;;5006534;28;20302;-81
2022/12/19 00:04:29;;;;;;;0.60;0.60;;;-3.20;99.90;;;;;;5008324;28;20199;-80
2022/12/19 00:06:58;;;;;;;0.80;0.80;;;-3.20;99.90;;;;;;5009582;28;20441;-80
2022/12/19 00:09:24;;;;;;;0.70;0.70;;;-3.20;99.90;;;;;;5007175;28;20730;-80
2022/12/19 00:11:50;;;;;;;0.73;0.73;;;-3.20;99.90;;;;;;5009431;28;20781;-80
2022/12/19 00:14:16;;;;;;;1.00;1.00;;;-3.30;99.90;;;;;;5007415;28;20561;-80
2022/12/19 00:16:41;;;;;;;0.80;0.80;;;-3.20;99.90;;;;;;5006676;28;20299;-80
2022/12/19 00:19:08;;;;;;;0.70;0.70;;;-3.20;99.90;;;;;;5008660;28;20519;-80
2022/12/19 00:21:34;;;;;;;0.80;0.80;;;-3.20;99.90;;;;;;4997518;28;20652;-81
2022/12/19 00:23:59;;;;;;;0.80;0.80;;;-3.20;99.90;;;;;;5002999;28;20490;-80
2022/12/19 00:26:30;;;;;;;0.53;0.53;;;-3.20;99.90;;;;;;5002298;28;20184;-80
2022/12/19 00:28:58;;;;;;;0.80;0.80;;;-3.20;99.90;;;;;;5008955;28;20624;-80
2022/12/19 00:31:27;;;;;;;0.80;0.80;;;-3.30;99.90;;;;;;5008617;28;20435;-80
2022/12/19 00:33:53;;;;;;;0.70;0.70;;;-3.30;99.90;;;;;;5008369;28;20427;-80
2022/12/19 00:36:21;;;;;;;0.67;0.67;;;-3.30;99.90;;;;;;5000348;28;20497;-80
2022/12/19 00:38:47;;;;;;;0.73;0.73;;;-3.30;99.90;;;;;;5004467;28;20197;-80
2022/12/19 00:41:24;;;;;;;0.63;0.63;;;-3.30;99.90;;;;;;5007812;28;20455;-80
2022/12/19 00:44:01;;;;;;;0.90;0.90;;;-3.30;99.90;;;;;;5006868;28;20560;-80
2022/12/19 00:46:27;;;;;;;0.83;0.83;;;-3.30;99.90;;;;;;5009975;28;20411;-80
2022/12/19 00:48:54;;;;;;;0.70;0.70;;;-3.30;99.90;;;;;;5007759;28;20820;-80
2022/12/19 00:51:22;;;;;;;0.67;0.67;;;-3.30;99.90;;;;;;5012844;28;20516;-80
2022/12/19 00:53:49;;;;;;;0.70;0.70;;;-3.30;99.90;;;;;;5000006;28;20416;-80
2022/12/19 00:56:19;;;;;;;0.87;0.87;;;-3.30;99.90;;;;;;5005374;28;20458;-80
2022/12/19 00:58:44;;;;;;;0.60;0.60;;;-3.20;99.90;;;;;;5012408;28;20558;-80
2022/12/19 01:01:22;;;;;;;0.60;0.60;;;-3.20;99.90;;;;;;5011794;28;20989;-80
2022/12/19 01:03:48;;;;;;;0.90;0.90;;;-3.20;99.90;;;;;;5011289;28;20226;-80
2022/12/19 01:06:13;;;;;;;0.70;0.70;;;-3.20;99.90;;;;;;5010167;28;20439;-80
2022/12/19 01:08:39;;;;;;;0.70;0.70;;;-3.20;99.90;;;;;;5001434;28;20292;-80
2022/12/19 01:11:06;;;;;;;0.80;0.80;;;-3.20;99.90;;;;;;5012570;28;20580;-80
2022/12/19 01:13:33;;;;;;;0.60;0.60;;;-3.20;99.90;;;;;;5008588;28;20332;-79
2022/12/19 01:16:11;;;;;;;0.70;0.70;;;-3.10;99.90;;;;;;5008964;28;20574;-80
2022/12/19 01:18:36;;;;;;;0.70;0.70;;;-3.10;99.90;;;;;;5010990;28;20541;-80
2022/12/19 01:21:05;;;;;;;0.80;0.80;;;-3.10;99.90;;;;;;5008533;28;20550;-80
2022/12/19 01:23:31;;;;;;;0.70;0.70;;;-3.10;99.90;;;;;;5010931;28;20312;-80
2022/12/19 01:25:57;;;;;;;0.70;0.70;;;-3.00;99.90;;;;;;5009518;28;20530;-80
2022/12/19 01:28:23;;;;;;;0.80;0.80;;;-3.00;99.90;;;;;;5011246;28;20466;-80
2022/12/19 01:30:49;;;;;;;0.70;0.70;;;-3.00;99.90;;;;;;5010930;28;20282;-80
2022/12/19 01:33:16;;;;;;;0.67;0.67;;;-3.00;99.90;;;;;;5012584;28;20880;-80
2022/12/19 01:35:42;;;;;;;0.80;0.80;;;-3.00;99.90;;;;;;5012974;28;20514;-80
2022/12/19 01:38:12;;;;;;;0.73;0.73;;;-2.90;99.90;;;;;;5013010;28;20444;-80
2022/12/19 01:40:38;;;;;;;0.70;0.70;;;-2.90;99.90;;;;;;5011895;28;20804;-80
2022/12/19 01:43:04;;;;;;;0.80;0.80;;;-2.90;99.90;;;;;;5013092;28;20475;-80
2022/12/19 01:45:34;;;;;;;0.70;0.70;;;-2.90;99.90;;;;;;5010556;28;20195;-80
2022/12/19 01:48:19;;;;;;;0.67;0.67;;;-2.90;99.90;;;;;;5013242;28;20931;-80
2022/12/19 01:50:47;;;;;;;0.70;0.70;;;-2.90;99.90;;;;;;5012760;28;20431;-80
2022/12/19 01:53:13;;;;;;;0.80;0.80;;;-2.80;99.90;;;;;;5012456;28;20442;-80
2022/12/19 01:55:41;;;;;;;0.70;0.70;;;-2.80;99.90;;;;;;5007392;28;21048;-80
2022/12/19 01:58:09;;;;;;;0.83;0.83;;;-2.80;99.90;;;;;;5009934;28;20188;-80
2022/12/19 02:00:34;;;;;;;0.70;0.70;;;-2.70;99.90;;;;;;5007892;28;20508;-80
2022/12/19 02:03:08;;;;;;;0.80;0.80;;;-2.70;99.90;;;;;;5007103;28;20977;-80
2022/12/19 02:05:34;;;;;;;0.70;0.70;;;-2.70;99.90;;;;;;5007394;28;20195;-80
2022/12/19 02:08:00;;;;;;;0.80;0.80;;;-2.70;99.90;;;;;;5010128;28;20447;-80
2022/12/19 02:10:26;;;;;;;0.70;0.70;;;-2.60;99.90;;;;;;5007653;28;20442;-80
2022/12/19 02:12:51;;;;;;;0.70;0.70;;;-2.60;99.90;;;;;;5009995;28;20455;-80
2022/12/19 02:15:18;;;;;;;0.63;0.63;;;-2.60;99.90;;;;;;5007604;28;20311;-80
2022/12/19 02:18:08;;;;;;;0.70;0.70;;;-2.60;99.90;;;;;;5009129;28;20188;-80
2022/12/19 02:21:03;;;;;;;0.80;0.80;;;-2.60;99.90;;;;;;5009706;28;20533;-80
2022/12/19 02:23:48;;;;;;;0.80;0.80;;;-2.60;99.90;;;;;;5008821;28;20573;-80
2022/12/19 02:26:24;;;;;;;0.60;0.60;;;-2.60;99.90;;;;;;5024762;28;20901;-80
2022/12/19 02:29:24;;;;;;;0.70;0.70;;;-2.60;99.90;;;;;;5009091;28;20461;-80
2022/12/19 02:32:03;;;;;;;0.60;0.60;;;-2.60;99.90;;;;;;5006872;28;20509;-80
2022/12/19 02:34:36;;;;;;;0.83;0.83;;;-2.50;99.90;;;;;;5009245;28;20441;-81
2022/12/19 02:37:06;;;;;;;0.70;0.70;;;-2.50;99.90;;;;;;5000089;28;20943;-81
2022/12/19 02:39:49;;;;;;;0.90;0.90;;;-2.50;99.90;;;;;;4999368;28;20820;-81
2022/12/19 02:42:23;;;;;;;0.80;0.80;;;-2.50;99.90;;;;;;5008259;28;20482;-81
2022/12/19 02:44:51;;;;;;;0.70;0.70;;;-2.50;99.90;;;;;;5004534;28;21222;-81
2022/12/19 02:47:17;;;;;;;0.50;0.50;;;-2.50;99.90;;;;;;5004998;28;20435;-81
2022/12/19 02:49:43;;;;;;;0.70;0.70;;;-2.50;99.90;;;;;;5025205;28;20486;-81
2022/12/19 02:52:17;;;;;;;0.60;0.60;;;-2.50;99.90;;;;;;5006818;28;20572;-81
2022/12/19 02:54:44;;;;;;;0.80;0.80;;;-2.40;99.90;;;;;;5009491;28;20195;-81
2022/12/19 02:57:31;;;;;;;0.60;0.60;;;-2.40;99.90;;;;;;5008172;28;20440;-81
2022/12/19 03:00:06;;;;;;;0.80;0.80;;;-2.40;99.90;;;;;;5008325;28;20462;-81
2022/12/19 03:02:54;;;;;;;0.90;0.90;;;-2.40;99.90;;;;;;5002944;28;20478;-81
2022/12/19 03:05:26;;;;;;;0.60;0.60;;;-2.40;99.90;;;;;;4992224;28;20951;-81
2022/12/19 03:08:07;;;;;;;0.70;0.70;;;-2.30;99.90;;;;;;5003304;28;20486;-82
2022/12/19 03:10:53;;;;;;;0.80;0.80;;;-2.40;99.90;;;;;;5008174;28;20958;-81
2022/12/19 03:13:39;;;;;;;0.83;0.83;;;-2.30;99.90;;;;;;5007113;28;20931;-81
2022/12/19 03:16:09;;;;;;;0.80;0.80;;;-2.40;99.90;;;;;;5002476;28;21000;-81
2022/12/19 03:18:35;;;;;;;0.90;0.90;;;-2.30;99.90;;;;;;5010413;28;20438;-81
2022/12/19 03:21:07;;;;;;;0.70;0.70;;;-2.30;99.90;;;;;;5011074;28;20656;-81
2022/12/19 03:23:33;;;;;;;0.70;0.70;;;-2.30;99.90;;;;;;5007832;28;20970;-81
2022/12/19 03:26:05;;;;;;;0.60;0.60;;;-2.30;99.90;;;;;;5006311;28;20479;-81
2022/12/19 03:28:50;;;;;;;0.60;0.60;;;-2.30;99.90;;;;;;5007789;28;20510;-81
2022/12/19 03:31:18;;;;;;;0.63;0.63;;;-2.20;99.90;;;;;;5010115;28;20443;-81
2022/12/19 03:33:46;;;;;;;0.70;0.70;;;-2.30;99.90;;;;;;5009556;28;20534;-81
2022/12/19 03:36:18;;;;;;;0.80;0.80;;;-2.30;99.90;;;;;;5010832;28;20430;-81
2022/12/19 03:38:45;;;;;;;0.50;0.50;;;-2.20;99.90;;;;;;5008407;28;20947;-81
2022/12/19 03:41:13;;;;;;;0.70;0.70;;;-2.20;99.90;;;;;;5010398;28;20485;-81
2022/12/19 03:43:40;;;;;;;0.70;0.70;;;-2.20;99.90;;;;;;5004649;28;21031;-81
2022/12/19 03:46:05;;;;;;;0.70;0.70;;;-2.20;99.90;;;;;;5007579;28;20808;-81
2022/12/19 03:48:47;;;;;;;0.60;0.60;;;-2.20;99.90;;;;;;5004515;28;20452;-81
2022/12/19 03:51:36;;;;;;;0.63;0.63;;;-2.10;99.90;;;;;;5002254;28;20628;-81
2022/12/19 03:54:12;;;;;;;0.60;0.60;;;-2.10;99.90;;;;;;5005033;28;20565;-81
2022/12/19 03:56:37;;;;;;;0.80;0.80;;;-2.10;99.90;;;;;;5009528;28;20439;-81
2022/12/19 03:59:15;;;;;;;0.50;0.50;;;-2.10;99.90;;;;;;5004237;28;20878;-81
2022/12/19 04:01:41;;;;;;;0.60;0.60;;;-2.10;99.90;;;;;;4999306;28;20667;-81
2022/12/19 04:04:07;;;;;;;0.80;0.80;;;-2.10;99.90;;;;;;5007502;28;20490;-81
2022/12/19 04:06:34;;;;;;;0.80;0.80;;;-2.00;99.90;;;;;;5003504;28;20446;-81
2022/12/19 04:09:01;;;;;;;0.60;0.60;;;-2.00;99.90;;;;;;5001624;28;20451;-81
2022/12/19 04:11:33;;;;;;;0.60;0.60;;;-2.00;99.90;;;;;;5009244;28;21023;-81
2022/12/19 04:14:10;;;;;;;0.70;0.70;;;-2.10;99.90;;;;;;5009077;28;20443;-80
2022/12/19 04:16:39;;;;;;;0.70;0.70;;;-2.10;99.90;;;;;;5007694;28;20450;-81
2022/12/19 04:19:16;;;;;;;0.60;0.60;;;-2.10;99.90;;;;;;5005939;28;20450;-81
2022/12/19 04:21:51;;;;;;;0.60;0.60;;;-2.10;99.90;;;;;;5000870;28;21155;-81
2022/12/19 04:24:24;;;;;;;0.70;0.70;;;-2.10;99.90;;;;;;5005282;28;20505;-81
2022/12/19 04:26:53;;;;;;;0.60;0.60;;;-2.10;99.90;;;;;;4998965;28;21037;-81
2022/12/19 04:29:19;;;;;;;0.73;0.73;;;-2.10;99.90;;;;;;5004436;28;20448;-81
2022/12/19 04:31:45;;;;;;;0.70;0.70;;;-2.00;99.90;;;;;;5007882;28;20489;-81
2022/12/19 04:34:11;;;;;;;0.50;0.50;;;-2.10;99.90;;;;;;5006675;28;20455;-81
2022/12/19 04:36:37;;;;;;;0.60;0.60;;;-2.00;99.90;;;;;;5007741;28;20431;-81
2022/12/19 04:39:02;;;;;;;0.80;0.80;;;-2.00;99.90;;;;;;5006963;28;20184;-80
2022/12/19 04:41:28;;;;;;;0.70;0.70;;;-2.00;99.90;;;;;;5004781;28;20184;-81
2022/12/19 04:43:53;;;;;;;0.70;0.70;;;-2.00;99.90;;;;;;4995605;28;20274;-80
2022/12/19 04:46:19;;;;;;;0.80;0.80;;;-2.00;99.90;;;;;;5005627;28;20282;-81
2022/12/19 04:48:44;;;;;;;0.70;0.70;;;-1.90;99.90;;;;;;5004994;28;20196;-81
2022/12/19 04:51:10;;;;;;;0.70;0.70;;;-1.90;99.90;;;;;;5005562;28;20190;-80
2022/12/19 04:53:35;;;;;;;0.50;0.50;;;-2.00;99.90;;;;;;5007136;28;20215;-81
2022/12/19 04:56:03;;;;;;;0.60;0.60;;;-1.90;99.90;;;;;;5005011;28;20270;-80
2022/12/19 04:58:31;;;;;;;0.60;0.60;;;-1.90;99.90;;;;;;4999438;28;20184;-81
2022/12/19 05:01:06;;;;;;;0.80;0.80;;;-1.90;99.90;;;;;;5004441;28;20446;-81
2022/12/19 05:03:33;;;;;;;0.60;0.60;;;-1.90;99.90;;;;;;5004721;28;20491;-80
2022/12/19 05:06:08;;;;;;;0.60;0.60;;;-1.90;99.90;;;;;;5007580;28;20443;-80
2022/12/19 05:08:34;;;;;;;0.70;0.70;;;-1.90;99.90;;;;;;5006541;28;20187;-80
2022/12/19 05:11:02;;;;;;;0.50;0.50;;;-1.90;99.90;;;;;;5004387;28;20922;-80
2022/12/19 05:13:29;;;;;;;0.60;0.60;;;-1.80;99.90;;;;;;5002106;28;20455;-81
2022/12/19 05:15:56;;;;;;;0.70;0.70;;;-1.80;99.90;;;;;;5006138;28;20479;-80
2022/12/19 05:18:21;;;;;;;0.60;0.60;;;-1.80;99.90;;;;;;5008902;28;20438;-80
2022/12/19 05:20:48;;;;;;;0.70;0.70;;;-1.80;99.90;;;;;;5007458;28;20525;-80
2022/12/19 05:23:13;;;;;;;0.70;0.70;;;-1.70;99.90;;;;;;5006550;28;20220;-80
2022/12/19 05:25:38;;;;;;;0.70;0.70;;;-1.70;99.90;;;;;;5006568;28;20607;-80
2022/12/19 05:28:04;;;;;;;0.70;0.70;;;-1.70;99.90;;;;;;5007379;28;20662;-80
2022/12/19 05:30:30;;;;;;;0.60;0.60;;;-1.70;99.90;;;;;;5002957;28;20207;-80
2022/12/19 05:32:55;;;;;;;0.73;0.73;;;-1.70;99.90;;;;;;5007505;28;20180;-80
2022/12/19 05:35:21;;;;;;;0.60;0.60;;;-1.70;99.90;;;;;;5005731;28;20489;-80
2022/12/19 05:37:47;;;;;;;0.70;0.70;;;-1.70;99.90;;;;;;5004655;28;20641;-80
2022/12/19 05:40:15;;;;;;;0.60;0.60;;;-1.60;99.90;;;;;;5008912;28;20203;-80
2022/12/19 05:42:40;;;;;;;0.80;0.80;;;-1.60;99.90;;;;;;5010802;28;20208;-80
2022/12/19 05:45:07;;;;;;;0.60;0.60;;;-1.60;99.90;;;;;;5011582;28;20488;-80
2022/12/19 05:47:32;;;;;;;0.60;0.60;;;-1.60;99.90;;;;;;5007195;28;20185;-80
2022/12/19 05:49:58;;;;;;;0.60;0.60;;;-1.50;99.90;;;;;;5005753;28;20806;-80
2022/12/19 05:52:24;;;;;;;0.73;0.73;;;-1.50;99.90;;;;;;5006500;28;20654;-81
2022/12/19 05:54:49;;;;;;;0.60;0.60;;;-1.50;99.90;;;;;;5010246;28;20663;-80
2022/12/19 05:57:15;;;;;;;0.60;0.60;;;-1.50;99.90;;;;;;5011316;28;20663;-80
2022/12/19 05:59:40;;;;;;;0.70;0.70;;;-1.40;99.90;;;;;;5011453;28;20558;-80
2022/12/19 06:02:06;;;;;;;0.60;0.60;;;-1.40;99.90;;;;;;5002246;28;20188;-80
2022/12/19 06:04:31;;;;;;;0.80;0.80;;;-1.40;99.90;;;;;;5010272;28;20220;-80
2022/12/19 06:06:57;;;;;;;0.67;0.67;;;-1.40;99.90;;;;;;5008685;28;20189;-80
2022/12/19 06:09:23;;;;;;;0.63;0.63;;;-1.40;99.90;;;;;;5010270;28;20188;-80
2022/12/19 06:11:48;;;;;;;0.40;0.40;;;-1.40;99.90;;;;;;5011215;28;20189;-80
2022/12/19 06:14:14;;;;;;;0.80;0.80;;;-1.30;99.90;;;;;;5011218;28;20811;-80
2022/12/19 06:16:40;;;;;;;0.70;0.70;;;-1.40;99.90;;;;;;5015959;28;20193;-80
2022/12/19 06:19:05;;;;;;;0.40;0.40;;;-1.30;99.90;;;;;;5010906;28;20451;-80
2022/12/19 06:21:31;;;;;;;0.40;0.40;;;-1.30;99.90;;;;;;5013293;28;20181;-80
2022/12/19 06:23:57;;;;;;;0.40;0.40;;;-1.30;99.90;;;;;;5013282;28;20224;-80
2022/12/19 06:26:22;;;;;;;0.60;0.60;;;-1.20;99.90;;;;;;5012094;28;20652;-81
2022/12/19 06:28:49;;;;;;;0.60;0.60;;;-1.20;99.90;;;;;;5013245;28;20212;-80
2022/12/19 06:31:15;;;;;;;0.70;0.70;;;-1.20;99.90;;;;;;5011628;28;20477;-80
2022/12/19 06:33:41;;;;;;;0.60;0.60;;;-1.10;99.90;;;;;;5006386;28;21028;-81
2022/12/19 06:36:10;;;;;;;0.60;0.60;;;-1.10;99.90;;;;;;5004042;28;20923;-79
2022/12/19 06:38:36;;;;;;;0.60;0.60;;;-1.10;99.90;;;;;;5007522;28;20181;-81
2022/12/19 06:43:46;;;;;;;0.60;0.60;;;-1.00;99.90;;;;;;5008656;28;20310;-80
2022/12/19 06:46:12;;;;;;;0.60;0.60;;;-1.00;99.90;;;;;;5007383;28;20828;-81
2022/12/19 06:48:37;;;;;;;0.70;0.70;;;-1.00;99.90;;;;;;5006717;28;20188;-81
2022/12/19 06:51:03;;;;;;;0.60;0.60;;;-1.00;99.90;;;;;;5006719;28;20269;-81
2022/12/19 06:53:29;;;;;;;0.60;0.60;;;-1.00;99.90;;;;;;5002816;28;20652;-81
2022/12/19 06:55:57;;;;;;;0.50;0.50;;;-0.90;99.90;;;;;;5004005;28;20219;-80
2022/12/19 06:58:26;;;;;;;0.50;0.50;;;-0.90;99.90;;;;;;5008501;28;20181;-80
2022/12/19 07:00:52;;;;;;;0.50;0.50;;;-0.80;99.90;;;;;;5008497;28;20466;-80
2022/12/19 07:03:24;;;;;;;0.50;0.50;;;-0.80;99.90;;;;;;5005442;28;20509;-80
2022/12/19 07:05:50;;;;;;;0.53;0.53;;;-0.80;99.90;;;;;;5008616;28;20447;-80
2022/12/19 07:08:15;;;;;;;0.50;0.50;;;-0.80;99.90;;;;;;5002432;28;20903;-80
2022/12/19 07:10:41;;;;;;;0.50;0.50;;;-0.80;99.90;;;;;;5009260;28;20561;-80
2022/12/19 07:13:06;;;;;;;0.53;0.53;;;-0.80;99.90;;;;;;5005687;28;20228;-80
2022/12/19 07:15:33;;;;;;;0.60;0.60;;;-0.80;99.90;;;;;;5010479;28;20239;-80
2022/12/19 07:18:04;;;;;;;0.70;0.70;;;-0.80;99.90;;;;;;5005548;28;20194;-80
2022/12/19 07:20:31;;;;;;;0.60;0.60;;;-0.80;99.90;;;;;;5009429;28;20447;-80
2022/12/19 07:22:57;;;;;;;0.50;0.50;;;-0.80;99.90;;;;;;5008332;28;20558;-80
2022/12/19 07:25:23;;;;;;;0.50;0.50;;;-0.80;99.90;;;;;;5004858;28;20531;-80
2022/12/19 07:27:49;;;;;;;0.67;0.67;;;-0.80;99.90;;;;;;5006638;28;20475;-80
2022/12/19 07:30:14;;;;;;;0.70;0.70;;;-0.70;99.90;;;;;;5007200;28;20283;-80
2022/12/19 07:32:40;;;;;;;0.60;0.60;;;-0.70;99.90;;;;;;5009285;28;20832;-81
2022/12/19 07:35:06;;;;;;;0.67;0.67;;;-0.70;99.90;;;;;;5004128;28;20295;-79
2022/12/19 07:37:31;;;;;;;0.60;0.60;;;-0.70;99.90;;;;;;5007636;28;20238;-79
2022/12/19 07:39:57;;;;;;;0.60;0.60;;;-0.70;99.90;;;;;;5000701;28;20844;-79
2022/12/19 07:42:22;;;;;;;0.63;0.63;;;-0.70;99.90;;;;;;4999705;28;20192;-79
2022/12/19 07:44:48;;;;;;;0.57;0.57;;;-0.70;99.90;;;;;;5005898;28;20192;-79
2022/12/19 07:47:14;;;;;;;0.60;0.60;;;-0.70;99.90;;;;;;5002898;28;20176;-80
2022/12/19 07:49:39;;;;;;;0.50;0.50;;;-0.80;99.90;;;;;;5010007;28;20275;-79
2022/12/19 07:52:05;;;;;;;0.53;0.53;;;-0.70;99.90;;;;;;5003271;28;20185;-81
2022/12/19 07:54:30;;;;;;;0.50;0.50;;;-0.70;99.90;;;;;;5006439;28;20246;-80
2022/12/19 07:56:56;;;;;;;0.50;0.50;;;-0.70;99.90;;;;;;5011125;28;20191;-80
2022/12/19 07:59:21;;;;;;;0.40;0.40;;;-0.70;99.90;;;;;;5007958;28;20184;-80
2022/12/19 08:01:47;;;;;;;0.70;0.70;;;-0.70;99.90;;;;;;5007975;28;20560;-80
2022/12/19 08:04:12;;;;;;;0.60;0.60;;;-0.60;99.90;;;;;;5002107;28;20231;-80
2022/12/19 08:06:38;;;;;;;0.50;0.50;;;-0.60;99.90;;;;;;5001833;28;20193;-79
2022/12/19 08:09:04;;;;;;;0.60;0.60;;;-0.60;99.90;;;;;;5008924;28;20310;-80
2022/12/19 08:11:29;;;;;;;0.60;0.60;;;-0.60;99.90;;;;;;5001843;28;20215;-79
2022/12/19 08:13:59;;;;;;;0.60;0.60;;;-0.60;99.90;;;;;;5006311;28;20884;-80
2022/12/19 08:16:26;;;;;;;0.47;0.47;;;-0.60;99.90;;;;;;5007003;28;20207;-80
2022/12/19 08:18:52;;;;;;;0.50;0.50;;;-0.50;99.90;;;;;;5008137;28;20447;-80
2022/12/19 08:21:18;;;;;;;0.60;0.60;;;-0.50;99.90;;;;;;4991787;28;20985;-79
2022/12/19 08:23:44;;;;;;;0.60;0.60;;;-0.40;99.90;;;;;;5010139;28;20220;-80
2022/12/19 08:26:15;;;;;;;0.50;0.50;;;-0.40;99.90;;;;;;5005680;28;20446;-81
2022/12/19 08:28:42;;;;;;;0.50;0.50;;;-0.40;99.90;;;;;;5007314;28;20834;-79
2022/12/19 08:31:13;;;;;;;0.50;0.50;;;-0.40;99.90;;;;;;5002905;28;20489;-80
2022/12/19 08:33:39;;;;;;;0.47;0.47;;;-0.30;99.90;;;;;;5007605;28;20943;-79
2022/12/19 08:36:07;;;;;;;0.50;0.50;;;-0.30;99.90;;;;;;5006571;28;20497;-79
2022/12/19 08:38:33;;;;;;;0.40;0.40;;;-0.30;99.90;;;;;;5003665;28;20466;-78
2022/12/19 08:40:59;;;;;;;0.50;0.50;;;-0.20;99.90;;;;;;5006699;28;20451;-78
2022/12/19 08:43:25;;;;;;;0.60;0.60;;;-0.20;99.90;;;;;;5006901;28;20486;-78
2022/12/19 08:45:51;;;;;;;0.40;0.40;;;-0.20;99.90;;;;;;5003543;28;20679;-78
2022/12/19 08:48:17;;;;;;;0.50;0.50;;;-0.20;99.90;;;;;;5005878;28;20486;-81
2022/12/19 08:51:05;;;;;;;0.60;0.60;;;-0.20;99.90;;;;;;5005844;28;20722;-80
2022/12/19 08:53:34;;;;;;;0.50;0.50;;;-0.20;99.90;;;;;;4996256;28;20819;-81
2022/12/19 08:56:04;;;;;;;0.57;0.57;;;-0.10;99.90;;;;;;4996658;28;20551;-77
2022/12/19 08:58:38;;;;;;;0.47;0.47;;;-0.10;99.90;;;;;;5004431;28;20792;-81
2022/12/19 09:01:12;;;;;;;0.50;0.50;;;-0.10;99.90;;;;;;5006639;28;20451;-81
2022/12/19 09:03:38;;;;;;;0.50;0.50;;;-0.10;99.90;;;;;;5002750;28;20541;-81
2022/12/19 09:06:06;;;;;;;0.50;0.50;;;-0.10;99.90;;;;;;5003105;28;20440;-82
2022/12/19 09:08:33;;;;;;;0.60;0.60;;;-0.10;99.90;;;;;;5023002;28;20505;-82
2022/12/19 09:11:00;;;;;;;0.50;0.50;;;-0.10;99.90;;;;;;5007188;28;20443;-83
2022/12/19 09:13:27;;;;;;;0.50;0.50;;;-0.10;99.90;;;;;;5004201;28;20534;-82
2022/12/19 09:16:17;;;;;;;0.60;0.60;;;-0.10;99.90;;;;;;5007372;28;21010;-84
2022/12/19 09:18:51;;;;;;;0.50;0.50;;;0.00;99.90;;;;;;4999946;28;20827;-83
2022/12/19 09:21:18;;;;;;;0.50;0.50;;;0.00;99.90;;;;;;5005330;28;20966;-85
2022/12/19 09:23:54;;;;;;;0.40;0.40;;;0.10;99.90;;;;;;5008830;28;20493;-86
2022/12/19 09:26:21;;;;;;;0.50;0.50;;;0.10;99.90;;;;;;5005717;28;20457;-84
2022/12/19 09:28:47;;;;;;;0.40;0.40;;;0.10;99.90;;;;;;5009785;28;20453;-84
2022/12/19 09:31:19;;;;;;;0.50;0.50;;;0.10;99.90;;;;;;5009621;28;20443;-84
2022/12/19 09:33:45;;;;;;;0.40;0.40;;;0.10;99.90;;;;;;5013564;28;20510;-84
2022/12/19 09:36:16;;;;;;;0.40;0.40;;;0.20;99.90;;;;;;5006374;28;20942;-86
2022/12/19 09:38:42;;;;;;;0.30;0.30;;;0.20;99.90;;;;;;5001687;28;20450;-84
2022/12/19 09:41:45;;;;;;;0.40;0.40;;;0.30;99.90;;;;;;5007755;28;20427;-87
2022/12/19 09:44:22;;;;;;;0.40;0.40;;;0.30;99.90;;;;;;5007151;28;20493;-86
2022/12/19 09:46:51;;;;;;;0.40;0.40;;;0.30;99.90;;;;;;5006195;28;20445;-86
2022/12/19 09:49:20;;;;;;;0.30;0.30;;;0.30;99.90;;;;;;5007807;28;20462;-86
2022/12/19 09:51:57;;;;;;;0.30;0.30;;;0.30;99.90;;;;;;5008157;28;20885;-86
2022/12/19 09:55:07;;;;;;;0.30;0.30;;;0.30;99.90;;;;;;5005977;28;20470;-90
2022/12/19 09:57:43;;;;;;;0.30;0.30;;;0.40;99.90;;;;;;5007673;28;21088;-95
2022/12/19 10:00:16;;;;;;;0.40;0.40;;;0.40;99.90;;;;;;5011797;28;20446;-91
2022/12/19 10:03:01;;;;;;;0.50;0.50;;;0.50;99.90;;;;;;5006426;28;20471;-95
2022/12/19 10:05:39;;;;;;;0.40;0.40;;;0.40;99.90;;;;;;5005900;28;20443;-94
2022/12/19 10:08:17;;;;;;;0.30;0.30;;;0.50;99.90;;;;;;5005593;28;20477;-95
2022/12/19 10:10:58;;;;;;;0.30;0.30;;;0.50;99.90;;;;;;5013614;28;20471;-96
2022/12/19 10:13:48;;;;;;;0.40;0.40;;;0.50;99.90;;;;;;5031660;28;20451;-96
2022/12/19 10:16:37;;;;;;;0.37;0.37;;;0.50;99.90;;;;;;5018887;28;20537;-96
2022/12/19 10:19:08;;;;;;;0.40;0.40;;;0.60;99.90;;;;;;5007401;28;20450;-94
2022/12/19 10:21:48;;;;;;;0.40;0.40;;;0.60;99.90;;;;;;5009573;28;20448;-91
2022/12/19 10:24:19;;;;;;;0.40;0.40;;;0.60;99.90;;;;;;5005716;28;20482;-90
2022/12/19 10:26:51;;;;;;;0.40;0.40;;;0.60;99.90;;;;;;4999123;28;20435;-93
2022/12/19 10:29:42;;;;;;;0.40;0.40;;;0.70;99.90;;;;;;5014921;28;20901;-93
2022/12/19 10:33:05;;;;;;;0.40;0.40;;;0.70;99.90;;;;;;5008515;28;20448;-93
2022/12/19 10:35:42;;;;;;;0.40;0.40;;;0.80;99.90;;;;;;5008824;28;21013;-89
2022/12/19 10:38:13;;;;;;;0.50;0.50;;;0.80;99.90;;;;;;5006924;28;20474;-89
2022/12/19 10:41:07;;;;;;;0.50;0.50;;;0.80;99.90;;;;;;5008495;28;20447;-88
2022/12/19 10:43:53;;;;;;;0.40;0.40;;;0.80;99.90;;;;;;5008257;28;20485;-88
2022/12/19 10:46:38;;;;;;;0.50;0.50;;;0.80;99.90;;;;;;5005528;28;20800;-90
2022/12/19 10:49:16;;;;;;;0.50;0.50;;;0.90;99.90;;;;;;5009523;28;20534;-87
2022/12/19 10:51:54;;;;;;;0.50;0.50;;;0.90;99.90;;;;;;5005290;28;20492;-86
2022/12/19 10:54:21;;;;;;;0.40;0.40;;;0.90;99.90;;;;;;5001310;28;20529;-88
2022/12/19 10:56:47;;;;;;;0.30;0.30;;;0.90;99.90;;;;;;5005805;28;20911;-88
2022/12/19 10:59:18;;;;;;;0.30;0.30;;;1.00;99.90;;;;;;5010249;28;20455;-88
2022/12/19 11:01:44;;;;;;;0.40;0.40;;;1.00;99.90;;;;;;5008535;28;20536;-88
2022/12/19 11:04:13;;;;;;;0.40;0.40;;;1.00;99.90;;;;;;5004496;28;20537;-87
2022/12/19 11:06:46;;;;;;;0.40;0.40;;;1.10;99.90;;;;;;5003033;28;20492;-87
2022/12/19 11:09:26;;;;;;;0.40;0.40;;;1.10;99.90;;;;;;5008821;28;20582;-86
2022/12/19 11:12:11;;;;;;;0.30;0.30;;;1.10;99.90;;;;;;5001838;28;20450;-85
2022/12/19 11:14:43;;;;;;;0.50;0.50;;;1.10;99.90;;;;;;5007916;28;20478;-86
2022/12/19 11:17:34;;;;;;;0.40;0.40;;;1.10;99.90;;;;;;5004951;28;20482;-84
2022/12/19 11:20:12;;;;;;;0.33;0.33;;;1.20;99.90;;;;;;5004527;28;20517;-84
2022/12/19 11:22:39;;;;;;;0.47;0.47;;;1.30;99.90;;;;;;5007282;28;20870;-81
2022/12/19 11:25:05;;;;;;;0.40;0.40;;;1.20;99.90;;;;;;5005335;28;20546;-81
2022/12/19 11:27:45;;;;;;;0.40;0.40;;;1.30;99.90;;;;;;5003553;28;20475;-81
2022/12/19 11:30:13;;;;;;;0.30;0.30;;;1.30;99.90;;;;;;5006771;28;20888;-80
2022/12/19 11:32:45;;;;;;;0.40;0.40;;;1.30;99.90;;;;;;5008773;28;20525;-81
2022/12/19 11:35:23;;;;;;;0.50;0.50;;;1.30;99.90;;;;;;5003077;28;20451;-81
2022/12/19 11:37:59;;;;;;;0.40;0.40;;;1.30;99.90;;;;;;5006995;28;20458;-83
2022/12/19 11:40:43;;;;;;;0.40;0.40;;;1.40;99.90;;;;;;5000471;28;20455;-81
2022/12/19 11:43:14;;;;;;;0.40;0.40;;;1.40;99.90;;;;;;5008633;28;21040;-81
2022/12/19 11:45:55;;;;;;;0.40;0.40;;;1.50;99.90;;;;;;5009695;28;21093;-80
2022/12/19 11:48:36;;;;;;;0.40;0.40;;;1.50;99.90;;;;;;5008884;28;20435;-80
2022/12/19 11:51:11;;;;;;;0.30;0.30;;;1.50;99.90;;;;;;5009718;28;20447;-80
2022/12/19 11:54:06;;;;;;;0.30;0.30;;;1.40;99.90;;;;;;5008688;28;20488;-81
2022/12/19 11:56:32;;;;;;;0.40;0.40;;;1.50;99.90;;;;;;4989941;28;20903;-80
2022/12/19 11:59:20;;;;;;;0.50;0.50;;;1.40;99.90;;;;;;5004098;28;20534;-80
2022/12/19 12:02:02;;;;;;;0.40;0.40;;;1.40;99.90;;;;;;5002980;28;20199;-80
2022/12/19 12:04:42;;;;;;;0.40;0.40;;;1.50;99.90;;;;;;5002534;28;20482;-80
2022/12/19 12:07:08;;;;;;;0.40;0.40;;;1.50;99.90;;;;;;5004923;28;20951;-80
2022/12/19 12:09:55;;;;;;;0.40;0.40;;;1.50;99.90;;;;;;5009182;28;20451;-80
2022/12/19 12:12:31;;;;;;;0.30;0.30;;;1.50;99.90;;;;;;5006790;28;20451;-80
2022/12/19 12:15:15;;;;;;;0.40;0.40;;;1.60;99.90;;;;;;5002870;28;20823;-79
2022/12/19 12:17:47;;;;;;;0.40;0.40;;;1.60;99.90;;;;;;5003707;28;20435;-80
2022/12/19 12:20:39;;;;;;;0.40;0.40;;;1.60;99.90;;;;;;4994615;28;20451;-79
2022/12/19 12:23:27;;;;;;;0.50;0.50;;;1.60;99.90;;;;;;5002466;28;20966;-80
2022/12/19 12:26:08;;;;;;;0.30;0.30;;;1.70;99.90;;;;;;5004675;28;20458;-80
2022/12/19 12:28:34;;;;;;;0.30;0.30;;;1.70;99.90;;;;;;5001836;28;20897;-79
2022/12/19 12:31:08;;;;;;;0.40;0.40;;;1.70;99.90;;;;;;5007129;28;20452;-79
2022/12/19 12:33:59;;;;;;;0.40;0.40;;;1.70;99.90;;;;;;5007827;28;20719;-79
2022/12/19 12:36:49;;;;;;;0.30;0.30;;;1.80;99.90;;;;;;4997948;28;20457;-80
2022/12/19 12:39:35;;;;;;;0.40;0.40;;;1.80;99.90;;;;;;4987054;28;20459;-79
2022/12/19 12:42:11;;;;;;;0.40;0.40;;;1.90;99.90;;;;;;4998319;28;21016;-79
2022/12/19 12:44:40;;;;;;;0.43;0.43;;;2.00;99.90;;;;;;5003936;28;20493;-79
2022/12/19 12:47:11;;;;;;;0.37;0.37;;;2.00;99.90;;;;;;4999610;28;20463;-79
2022/12/19 12:50:04;;;;;;;0.40;0.40;;;2.00;99.90;;;;;;5006847;28;20505;-79
2022/12/19 12:52:40;;;;;;;0.40;0.40;;;2.00;99.90;;;;;;5009288;28;20982;-79
2022/12/19 12:55:27;;;;;;;0.40;0.40;;;2.10;99.90;;;;;;5006525;28;20589;-78
2022/12/19 12:57:53;;;;;;;0.40;0.40;;;2.10;99.90;;;;;;5008817;28;20439;-79
2022/12/19 13:00:23;;;;;;;0.40;0.40;;;2.10;99.90;;;;;;5008630;28;20446;-79
2022/12/19 13:03:15;;;;;;;0.40;0.40;;;2.00;99.90;;;;;;5004299;28;20223;-79
2022/12/19 13:06:05;;;;;;;0.30;0.30;;;2.00;99.90;;;;;;5007307;28;20443;-79
2022/12/19 13:08:38;;;;;;;0.50;0.50;;;2.10;99.90;;;;;;5013098;28;20972;-79
2022/12/19 13:12:58;;;;;;;0.40;0.40;;;2.10;99.90;;;;;;5000343;28;20432;-79
2022/12/19 13:13:58;;;;;;;0.30;0.30;;;2.20;99.90;;;;;;5008788;28;20450;-79
2022/12/19 13:16:42;;;;;;;0.30;0.30;;;2.20;99.90;;;;;;5015945;28;20443;-79